sensor_id;sensor_type;location;lat;lon;timestamp;P1;durP1;ratioP1;P2;durP2;ratioP2
41799;SDS011;27468;47.460;19.034;2023-02-04T00:00:08;4.85;;;1.27;;
41799;SDS011;27468;47.460;19.034;2023-02-04T00:02:36;7.88;;;1.33;;
41799;SDS011;27468;47.460;19.034;2023-02-04T00:05:02;8.35;;;1.45;;
41799;SDS011;27468;47.460;19.034;2023-02-04T00:07:28;6.57;;;1.40;;
41799;SDS011;27468;47.460;19.034;2023-02-04T00:09:53;3.60;;;1.20;;
41799;SDS011;27468;47.460;19.034;2023-02-04T00:12:19;3.22;;;0.98;;
41799;SDS011;27468;47.460;19.034;2023-02-04T00:14:44;4.97;;;1.20;;
41799;SDS011;27468;47.460;19.034;2023-02-04T00:17:10;7.75;;;1.40;;
41799;SDS011;27468;47.460;19.034;2023-02-04T00:19:37;2.50;;;1.08;;
41799;SDS011;27468;47.460;19.034;2023-02-04T00:22:03;3.65;;;1.40;;
41799;SDS011;27468;47.460;19.034;2023-02-04T00:24:31;3.20;;;1.13;;
41799;SDS011;27468;47.460;19.034;2023-02-04T00:26:56;5.82;;;1.35;;
41799;SDS011;27468;47.460;19.034;2023-02-04T00:29:22;4.50;;;1.60;;
41799;SDS011;27468;47.460;19.034;2023-02-04T00:31:47;7.43;;;1.40;;
41799;SDS011;27468;47.460;19.034;2023-02-04T00:34:12;5.32;;;1.67;;
41799;SDS011;27468;47.460;19.034;2023-02-04T00:36:38;6.43;;;1.42;;
41799;SDS011;27468;47.460;19.034;2023-02-04T00:39:03;4.72;;;1.38;;
41799;SDS011;27468;47.460;19.034;2023-02-04T00:41:28;5.20;;;1.20;;
41799;SDS011;27468;47.460;19.034;2023-02-04T00:43:54;6.15;;;1.25;;
41799;SDS011;27468;47.460;19.034;2023-02-04T00:46:19;5.30;;;1.52;;
41799;SDS011;27468;47.460;19.034;2023-02-04T00:48:45;4.65;;;1.00;;
41799;SDS011;27468;47.460;19.034;2023-02-04T00:51:10;4.18;;;1.40;;
41799;SDS011;27468;47.460;19.034;2023-02-04T00:53:36;5.00;;;1.55;;
41799;SDS011;27468;47.460;19.034;2023-02-04T00:56:01;6.20;;;2.67;;
41799;SDS011;27468;47.460;19.034;2023-02-04T00:58:27;8.57;;;1.45;;
41799;SDS011;27468;47.460;19.034;2023-02-04T01:00:52;6.10;;;1.88;;
41799;SDS011;27468;47.460;19.034;2023-02-04T01:03:17;5.03;;;1.95;;
41799;SDS011;27468;47.460;19.034;2023-02-04T01:05:43;2.00;;;0.93;;
41799;SDS011;27468;47.460;19.034;2023-02-04T01:08:08;5.53;;;1.70;;
41799;SDS011;27468;47.460;19.034;2023-02-04T01:10:34;4.55;;;1.80;;
41799;SDS011;27468;47.460;19.034;2023-02-04T01:12:59;3.67;;;1.13;;
41799;SDS011;27468;47.460;19.034;2023-02-04T01:15:25;5.50;;;1.27;;
41799;SDS011;27468;47.460;19.034;2023-02-04T01:17:50;5.80;;;2.40;;
41799;SDS011;27468;47.460;19.034;2023-02-04T01:20:16;4.13;;;1.45;;
41799;SDS011;27468;47.460;19.034;2023-02-04T01:22:41;1.95;;;0.80;;
41799;SDS011;27468;47.460;19.034;2023-02-04T01:25:07;2.35;;;0.93;;
41799;SDS011;27468;47.460;19.034;2023-02-04T01:27:33;8.35;;;1.98;;
41799;SDS011;27468;47.460;19.034;2023-02-04T01:29:58;4.03;;;1.40;;
41799;SDS011;27468;47.460;19.034;2023-02-04T01:32:24;3.25;;;0.90;;
41799;SDS011;27468;47.460;19.034;2023-02-04T01:34:49;3.80;;;1.35;;
41799;SDS011;27468;47.460;19.034;2023-02-04T01:37:14;3.08;;;0.70;;
41799;SDS011;27468;47.460;19.034;2023-02-04T01:39:40;4.28;;;1.45;;
41799;SDS011;27468;47.460;19.034;2023-02-04T01:42:05;2.72;;;1.10;;
41799;SDS011;27468;47.460;19.034;2023-02-04T01:44:31;4.07;;;0.77;;
41799;SDS011;27468;47.460;19.034;2023-02-04T01:46:57;4.50;;;1.38;;
41799;SDS011;27468;47.460;19.034;2023-02-04T01:49:23;5.68;;;1.33;;
41799;SDS011;27468;47.460;19.034;2023-02-04T01:51:49;5.60;;;1.13;;
41799;SDS011;27468;47.460;19.034;2023-02-04T01:54:14;6.28;;;1.10;;
41799;SDS011;27468;47.460;19.034;2023-02-04T01:56:43;5.43;;;1.35;;
41799;SDS011;27468;47.460;19.034;2023-02-04T01:59:11;3.97;;;0.90;;
41799;SDS011;27468;47.460;19.034;2023-02-04T02:04:09;4.30;;;1.25;;
41799;SDS011;27468;47.460;19.034;2023-02-04T02:06:38;3.55;;;1.10;;
41799;SDS011;27468;47.460;19.034;2023-02-04T02:09:05;2.63;;;0.90;;
41799;SDS011;27468;47.460;19.034;2023-02-04T02:11:30;4.18;;;1.67;;
41799;SDS011;27468;47.460;19.034;2023-02-04T02:13:56;2.92;;;0.80;;
41799;SDS011;27468;47.460;19.034;2023-02-04T02:16:22;4.75;;;1.00;;
41799;SDS011;27468;47.460;19.034;2023-02-04T02:18:48;8.32;;;1.88;;
41799;SDS011;27468;47.460;19.034;2023-02-04T02:21:14;4.28;;;0.80;;
41799;SDS011;27468;47.460;19.034;2023-02-04T02:26:14;6.72;;;1.08;;
41799;SDS011;27468;47.460;19.034;2023-02-04T02:28:40;4.18;;;1.50;;
41799;SDS011;27468;47.460;19.034;2023-02-04T02:31:06;2.97;;;1.00;;
41799;SDS011;27468;47.460;19.034;2023-02-04T02:33:32;1.80;;;0.98;;
41799;SDS011;27468;47.460;19.034;2023-02-04T02:35:58;4.13;;;1.10;;
41799;SDS011;27468;47.460;19.034;2023-02-04T02:38:23;4.40;;;0.95;;
41799;SDS011;27468;47.460;19.034;2023-02-04T02:40:49;5.35;;;1.10;;
41799;SDS011;27468;47.460;19.034;2023-02-04T02:43:17;4.82;;;0.80;;
41799;SDS011;27468;47.460;19.034;2023-02-04T02:45:45;0.55;;;0.40;;
41799;SDS011;27468;47.460;19.034;2023-02-04T02:48:12;2.83;;;0.90;;
41799;SDS011;27468;47.460;19.034;2023-02-04T02:50:37;1.00;;;0.50;;
41799;SDS011;27468;47.460;19.034;2023-02-04T02:53:04;3.67;;;0.98;;
41799;SDS011;27468;47.460;19.034;2023-02-04T02:55:34;6.20;;;1.40;;
41799;SDS011;27468;47.460;19.034;2023-02-04T02:58:00;4.63;;;1.10;;
41799;SDS011;27468;47.460;19.034;2023-02-04T03:00:26;3.22;;;0.80;;
41799;SDS011;27468;47.460;19.034;2023-02-04T03:02:57;3.05;;;0.70;;
41799;SDS011;27468;47.460;19.034;2023-02-04T03:05:24;2.05;;;0.60;;
41799;SDS011;27468;47.460;19.034;2023-02-04T03:07:50;5.00;;;1.00;;
41799;SDS011;27468;47.460;19.034;2023-02-04T03:10:16;1.80;;;0.75;;
41799;SDS011;27468;47.460;19.034;2023-02-04T03:12:42;4.72;;;0.85;;
41799;SDS011;27468;47.460;19.034;2023-02-04T03:15:10;3.70;;;1.00;;
41799;SDS011;27468;47.460;19.034;2023-02-04T03:17:36;4.00;;;0.70;;
41799;SDS011;27468;47.460;19.034;2023-02-04T03:20:02;3.58;;;0.60;;
41799;SDS011;27468;47.460;19.034;2023-02-04T03:22:28;3.65;;;0.80;;
41799;SDS011;27468;47.460;19.034;2023-02-04T03:24:54;4.68;;;1.92;;
41799;SDS011;27468;47.460;19.034;2023-02-04T03:27:22;3.03;;;0.80;;
41799;SDS011;27468;47.460;19.034;2023-02-04T03:29:48;4.22;;;0.85;;
41799;SDS011;27468;47.460;19.034;2023-02-04T03:32:13;7.28;;;0.82;;
41799;SDS011;27468;47.460;19.034;2023-02-04T03:34:39;5.97;;;1.15;;
41799;SDS011;27468;47.460;19.034;2023-02-04T03:37:04;4.35;;;0.98;;
41799;SDS011;27468;47.460;19.034;2023-02-04T03:39:29;3.78;;;1.00;;
41799;SDS011;27468;47.460;19.034;2023-02-04T03:41:55;3.60;;;1.70;;
41799;SDS011;27468;47.460;19.034;2023-02-04T03:44:20;4.03;;;1.38;;
41799;SDS011;27468;47.460;19.034;2023-02-04T03:46:46;4.25;;;1.33;;
41799;SDS011;27468;47.460;19.034;2023-02-04T03:49:11;5.93;;;1.40;;
41799;SDS011;27468;47.460;19.034;2023-02-04T03:51:37;8.45;;;2.45;;
41799;SDS011;27468;47.460;19.034;2023-02-04T03:54:02;3.95;;;1.17;;
41799;SDS011;27468;47.460;19.034;2023-02-04T03:56:28;2.83;;;1.17;;
41799;SDS011;27468;47.460;19.034;2023-02-04T03:58:53;3.80;;;0.85;;
41799;SDS011;27468;47.460;19.034;2023-02-04T04:01:19;3.58;;;1.10;;
41799;SDS011;27468;47.460;19.034;2023-02-04T04:03:44;5.68;;;1.38;;
41799;SDS011;27468;47.460;19.034;2023-02-04T04:06:09;6.05;;;1.75;;
41799;SDS011;27468;47.460;19.034;2023-02-04T04:08:35;1.95;;;0.73;;
41799;SDS011;27468;47.460;19.034;2023-02-04T04:11:02;2.78;;;0.95;;
41799;SDS011;27468;47.460;19.034;2023-02-04T04:13:27;2.67;;;0.70;;
41799;SDS011;27468;47.460;19.034;2023-02-04T04:15:53;2.67;;;0.80;;
41799;SDS011;27468;47.460;19.034;2023-02-04T04:18:18;3.72;;;0.80;;
41799;SDS011;27468;47.460;19.034;2023-02-04T04:20:43;5.93;;;0.90;;
41799;SDS011;27468;47.460;19.034;2023-02-04T04:23:09;3.25;;;0.82;;
41799;SDS011;27468;47.460;19.034;2023-02-04T04:25:34;1.88;;;0.75;;
41799;SDS011;27468;47.460;19.034;2023-02-04T04:28:00;3.50;;;0.90;;
41799;SDS011;27468;47.460;19.034;2023-02-04T04:30:25;3.67;;;1.00;;
41799;SDS011;27468;47.460;19.034;2023-02-04T04:32:50;4.25;;;0.85;;
41799;SDS011;27468;47.460;19.034;2023-02-04T04:35:16;3.20;;;0.90;;
41799;SDS011;27468;47.460;19.034;2023-02-04T04:37:41;5.45;;;0.80;;
41799;SDS011;27468;47.460;19.034;2023-02-04T04:40:08;4.20;;;0.77;;
41799;SDS011;27468;47.460;19.034;2023-02-04T04:42:35;4.57;;;0.82;;
41799;SDS011;27468;47.460;19.034;2023-02-04T04:45:01;2.30;;;0.80;;
41799;SDS011;27468;47.460;19.034;2023-02-04T04:47:27;3.58;;;0.52;;
41799;SDS011;27468;47.460;19.034;2023-02-04T04:49:52;3.50;;;1.17;;
41799;SDS011;27468;47.460;19.034;2023-02-04T04:52:18;4.05;;;0.75;;
41799;SDS011;27468;47.460;19.034;2023-02-04T04:54:43;3.47;;;1.15;;
41799;SDS011;27468;47.460;19.034;2023-02-04T04:57:08;2.72;;;0.68;;
41799;SDS011;27468;47.460;19.034;2023-02-04T04:59:34;2.95;;;0.70;;
41799;SDS011;27468;47.460;19.034;2023-02-04T05:01:59;1.73;;;0.90;;
41799;SDS011;27468;47.460;19.034;2023-02-04T05:04:25;2.67;;;1.20;;
41799;SDS011;27468;47.460;19.034;2023-02-04T05:06:50;2.33;;;1.00;;
41799;SDS011;27468;47.460;19.034;2023-02-04T05:09:15;2.63;;;0.57;;
41799;SDS011;27468;47.460;19.034;2023-02-04T05:11:41;2.20;;;0.50;;
41799;SDS011;27468;47.460;19.034;2023-02-04T05:14:06;2.55;;;0.70;;
41799;SDS011;27468;47.460;19.034;2023-02-04T05:16:32;1.85;;;0.63;;
41799;SDS011;27468;47.460;19.034;2023-02-04T05:18:57;3.47;;;0.68;;
41799;SDS011;27468;47.460;19.034;2023-02-04T05:21:23;3.35;;;1.17;;
41799;SDS011;27468;47.460;19.034;2023-02-04T05:23:48;0.32;;;0.30;;
41799;SDS011;27468;47.460;19.034;2023-02-04T05:26:13;3.78;;;0.70;;
41799;SDS011;27468;47.460;19.034;2023-02-04T05:28:39;2.25;;;1.02;;
41799;SDS011;27468;47.460;19.034;2023-02-04T05:31:04;3.20;;;1.25;;
41799;SDS011;27468;47.460;19.034;2023-02-04T05:33:30;2.03;;;1.00;;
41799;SDS011;27468;47.460;19.034;2023-02-04T05:35:55;3.50;;;0.60;;
41799;SDS011;27468;47.460;19.034;2023-02-04T05:38:20;2.83;;;0.65;;
41799;SDS011;27468;47.460;19.034;2023-02-04T05:40:46;1.20;;;0.50;;
41799;SDS011;27468;47.460;19.034;2023-02-04T05:43:11;0.98;;;0.52;;
41799;SDS011;27468;47.460;19.034;2023-02-04T05:45:37;3.63;;;0.85;;
41799;SDS011;27468;47.460;19.034;2023-02-04T05:48:02;1.42;;;0.50;;
41799;SDS011;27468;47.460;19.034;2023-02-04T05:50:28;1.48;;;0.50;;
41799;SDS011;27468;47.460;19.034;2023-02-04T05:52:53;1.17;;;0.40;;
41799;SDS011;27468;47.460;19.034;2023-02-04T05:55:18;0.90;;;0.50;;
41799;SDS011;27468;47.460;19.034;2023-02-04T05:57:44;1.15;;;0.50;;
41799;SDS011;27468;47.460;19.034;2023-02-04T06:00:10;1.20;;;0.40;;
41799;SDS011;27468;47.460;19.034;2023-02-04T06:02:36;1.52;;;0.35;;
41799;SDS011;27468;47.460;19.034;2023-02-04T06:05:01;0.40;;;0.40;;
41799;SDS011;27468;47.460;19.034;2023-02-04T06:07:26;1.55;;;0.30;;
41799;SDS011;27468;47.460;19.034;2023-02-04T06:09:52;0.75;;;0.50;;
41799;SDS011;27468;47.460;19.034;2023-02-04T06:12:17;0.73;;;0.32;;
41799;SDS011;27468;47.460;19.034;2023-02-04T06:14:42;1.23;;;0.40;;
41799;SDS011;27468;47.460;19.034;2023-02-04T06:17:08;1.27;;;0.38;;
41799;SDS011;27468;47.460;19.034;2023-02-04T06:19:33;1.05;;;0.30;;
41799;SDS011;27468;47.460;19.034;2023-02-04T06:21:59;0.20;;;0.20;;
41799;SDS011;27468;47.460;19.034;2023-02-04T06:24:24;0.50;;;0.45;;
41799;SDS011;27468;47.460;19.034;2023-02-04T06:26:49;0.55;;;0.38;;
41799;SDS011;27468;47.460;19.034;2023-02-04T06:29:15;1.15;;;0.60;;
41799;SDS011;27468;47.460;19.034;2023-02-04T06:31:40;1.13;;;0.32;;
41799;SDS011;27468;47.460;19.034;2023-02-04T06:34:06;0.40;;;0.40;;
41799;SDS011;27468;47.460;19.034;2023-02-04T06:36:31;0.30;;;0.30;;
41799;SDS011;27468;47.460;19.034;2023-02-04T06:38:57;0.73;;;0.20;;
41799;SDS011;27468;47.460;19.034;2023-02-04T06:41:22;0.20;;;0.20;;
41799;SDS011;27468;47.460;19.034;2023-02-04T06:43:48;0.63;;;0.40;;
41799;SDS011;27468;47.460;19.034;2023-02-04T06:46:13;1.02;;;0.35;;
41799;SDS011;27468;47.460;19.034;2023-02-04T06:48:39;0.30;;;0.30;;
41799;SDS011;27468;47.460;19.034;2023-02-04T06:51:04;0.80;;;0.50;;
41799;SDS011;27468;47.460;19.034;2023-02-04T06:53:30;1.40;;;0.60;;
41799;SDS011;27468;47.460;19.034;2023-02-04T06:55:55;0.50;;;0.30;;
41799;SDS011;27468;47.460;19.034;2023-02-04T06:58:21;0.67;;;0.47;;
41799;SDS011;27468;47.460;19.034;2023-02-04T07:00:46;1.07;;;0.50;;
41799;SDS011;27468;47.460;19.034;2023-02-04T07:03:12;0.47;;;0.40;;
41799;SDS011;27468;47.460;19.034;2023-02-04T07:05:37;0.65;;;0.47;;
41799;SDS011;27468;47.460;19.034;2023-02-04T07:08:02;0.80;;;0.40;;
41799;SDS011;27468;47.460;19.034;2023-02-04T07:10:28;2.03;;;0.40;;
41799;SDS011;27468;47.460;19.034;2023-02-04T07:12:54;0.80;;;0.53;;
41799;SDS011;27468;47.460;19.034;2023-02-04T07:15:19;0.80;;;0.43;;
41799;SDS011;27468;47.460;19.034;2023-02-04T07:17:44;0.90;;;0.50;;
41799;SDS011;27468;47.460;19.034;2023-02-04T07:20:10;1.00;;;0.75;;
41799;SDS011;27468;47.460;19.034;2023-02-04T07:22:36;1.13;;;0.60;;
41799;SDS011;27468;47.460;19.034;2023-02-04T07:25:01;1.00;;;0.70;;
41799;SDS011;27468;47.460;19.034;2023-02-04T07:27:27;1.58;;;1.00;;
41799;SDS011;27468;47.460;19.034;2023-02-04T07:29:52;2.83;;;1.00;;
41799;SDS011;27468;47.460;19.034;2023-02-04T07:32:18;1.90;;;0.50;;
41799;SDS011;27468;47.460;19.034;2023-02-04T07:34:43;2.90;;;0.90;;
41799;SDS011;27468;47.460;19.034;2023-02-04T07:37:08;2.70;;;1.47;;
41799;SDS011;27468;47.460;19.034;2023-02-04T07:39:34;1.30;;;0.90;;
41799;SDS011;27468;47.460;19.034;2023-02-04T07:41:59;1.92;;;1.17;;
41799;SDS011;27468;47.460;19.034;2023-02-04T07:44:25;1.27;;;0.82;;
41799;SDS011;27468;47.460;19.034;2023-02-04T07:46:50;1.65;;;1.40;;
41799;SDS011;27468;47.460;19.034;2023-02-04T07:49:15;1.50;;;1.15;;
41799;SDS011;27468;47.460;19.034;2023-02-04T07:51:41;1.67;;;1.17;;
41799;SDS011;27468;47.460;19.034;2023-02-04T07:54:06;1.87;;;1.43;;
41799;SDS011;27468;47.460;19.034;2023-02-04T07:56:32;2.30;;;1.40;;
41799;SDS011;27468;47.460;19.034;2023-02-04T07:58:57;4.33;;;2.33;;
41799;SDS011;27468;47.460;19.034;2023-02-04T08:01:22;3.97;;;2.03;;
41799;SDS011;27468;47.460;19.034;2023-02-04T08:03:48;3.35;;;2.15;;
41799;SDS011;27468;47.460;19.034;2023-02-04T08:06:13;2.38;;;1.35;;
41799;SDS011;27468;47.460;19.034;2023-02-04T08:08:39;1.92;;;1.33;;
41799;SDS011;27468;47.460;19.034;2023-02-04T08:11:04;3.00;;;2.08;;
41799;SDS011;27468;47.460;19.034;2023-02-04T08:13:29;3.72;;;2.03;;
41799;SDS011;27468;47.460;19.034;2023-02-04T08:15:55;2.13;;;1.70;;
41799;SDS011;27468;47.460;19.034;2023-02-04T08:18:20;3.63;;;1.50;;
41799;SDS011;27468;47.460;19.034;2023-02-04T08:20:46;3.20;;;1.80;;
41799;SDS011;27468;47.460;19.034;2023-02-04T08:23:11;4.03;;;2.33;;
41799;SDS011;27468;47.460;19.034;2023-02-04T08:25:37;3.85;;;1.65;;
41799;SDS011;27468;47.460;19.034;2023-02-04T08:28:02;3.67;;;2.63;;
41799;SDS011;27468;47.460;19.034;2023-02-04T08:30:28;3.50;;;2.00;;
41799;SDS011;27468;47.460;19.034;2023-02-04T08:32:54;4.93;;;2.93;;
41799;SDS011;27468;47.460;19.034;2023-02-04T08:35:19;4.00;;;2.00;;
41799;SDS011;27468;47.460;19.034;2023-02-04T08:37:45;2.55;;;1.80;;
41799;SDS011;27468;47.460;19.034;2023-02-04T08:40:10;3.88;;;2.38;;
41799;SDS011;27468;47.460;19.034;2023-02-04T08:42:36;2.78;;;1.75;;
41799;SDS011;27468;47.460;19.034;2023-02-04T08:45:01;3.70;;;2.10;;
41799;SDS011;27468;47.460;19.034;2023-02-04T08:47:28;2.67;;;1.80;;
41799;SDS011;27468;47.460;19.034;2023-02-04T08:49:53;2.00;;;1.40;;
41799;SDS011;27468;47.460;19.034;2023-02-04T08:52:19;2.60;;;1.38;;
41799;SDS011;27468;47.460;19.034;2023-02-04T08:54:44;1.97;;;1.43;;
41799;SDS011;27468;47.460;19.034;2023-02-04T08:57:09;3.47;;;1.55;;
41799;SDS011;27468;47.460;19.034;2023-02-04T08:59:35;2.70;;;1.80;;
41799;SDS011;27468;47.460;19.034;2023-02-04T09:02:00;2.03;;;1.20;;
41799;SDS011;27468;47.460;19.034;2023-02-04T09:04:27;2.40;;;1.63;;
41799;SDS011;27468;47.460;19.034;2023-02-04T09:06:53;1.73;;;1.00;;
41799;SDS011;27468;47.460;19.034;2023-02-04T09:09:19;3.40;;;2.30;;
41799;SDS011;27468;47.460;19.034;2023-02-04T09:11:44;2.53;;;1.43;;
41799;SDS011;27468;47.460;19.034;2023-02-04T09:14:10;2.47;;;1.40;;
41799;SDS011;27468;47.460;19.034;2023-02-04T09:16:35;3.87;;;1.73;;
41799;SDS011;27468;47.460;19.034;2023-02-04T09:19:01;1.93;;;1.30;;
41799;SDS011;27468;47.460;19.034;2023-02-04T09:21:27;2.13;;;1.10;;
41799;SDS011;27468;47.460;19.034;2023-02-04T09:23:52;3.28;;;1.77;;
41799;SDS011;27468;47.460;19.034;2023-02-04T09:26:18;2.23;;;1.47;;
41799;SDS011;27468;47.460;19.034;2023-02-04T09:28:44;2.20;;;1.50;;
41799;SDS011;27468;47.460;19.034;2023-02-04T09:31:09;2.73;;;1.20;;
41799;SDS011;27468;47.460;19.034;2023-02-04T09:33:36;2.70;;;1.50;;
41799;SDS011;27468;47.460;19.034;2023-02-04T09:36:02;3.05;;;1.52;;
41799;SDS011;27468;47.460;19.034;2023-02-04T09:38:28;1.77;;;1.42;;
41799;SDS011;27468;47.460;19.034;2023-02-04T09:40:55;1.83;;;1.38;;
41799;SDS011;27468;47.460;19.034;2023-02-04T09:43:24;1.20;;;1.03;;
41799;SDS011;27468;47.460;19.034;2023-02-04T09:45:53;1.75;;;1.35;;
41799;SDS011;27468;47.460;19.034;2023-02-04T09:48:20;0.97;;;0.70;;
41799;SDS011;27468;47.460;19.034;2023-02-04T09:50:47;2.53;;;1.40;;
41799;SDS011;27468;47.460;19.034;2023-02-04T09:53:16;1.75;;;1.20;;
41799;SDS011;27468;47.460;19.034;2023-02-04T09:55:47;1.77;;;1.10;;
41799;SDS011;27468;47.460;19.034;2023-02-04T09:58:17;1.30;;;1.20;;
41799;SDS011;27468;47.460;19.034;2023-02-04T10:03:43;1.58;;;0.98;;
41799;SDS011;27468;47.460;19.034;2023-02-04T10:06:15;1.50;;;1.10;;
41799;SDS011;27468;47.460;19.034;2023-02-04T10:08:42;2.40;;;1.20;;
41799;SDS011;27468;47.460;19.034;2023-02-04T10:11:09;3.03;;;0.82;;
41799;SDS011;27468;47.460;19.034;2023-02-04T10:13:36;1.58;;;0.70;;
41799;SDS011;27468;47.460;19.034;2023-02-04T10:16:09;1.45;;;1.08;;
41799;SDS011;27468;47.460;19.034;2023-02-04T10:18:38;1.15;;;0.60;;
41799;SDS011;27468;47.460;19.034;2023-02-04T10:21:18;1.02;;;0.50;;
41799;SDS011;27468;47.460;19.034;2023-02-04T10:23:52;3.30;;;1.25;;
41799;SDS011;27468;47.460;19.034;2023-02-04T10:26:20;3.75;;;1.55;;
41799;SDS011;27468;47.460;19.034;2023-02-04T10:28:47;5.53;;;2.40;;
41799;SDS011;27468;47.460;19.034;2023-02-04T10:36:34;4.40;;;0.93;;
41799;SDS011;27468;47.460;19.034;2023-02-04T10:39:00;1.35;;;0.70;;
41799;SDS011;27468;47.460;19.034;2023-02-04T10:41:31;1.50;;;0.88;;
41799;SDS011;27468;47.460;19.034;2023-02-04T10:44:12;1.40;;;0.57;;
41799;SDS011;27468;47.460;19.034;2023-02-04T10:46:39;1.48;;;0.90;;
41799;SDS011;27468;47.460;19.034;2023-02-04T10:49:05;2.58;;;0.90;;
41799;SDS011;27468;47.460;19.034;2023-02-04T10:51:43;2.05;;;0.85;;
41799;SDS011;27468;47.460;19.034;2023-02-04T10:54:11;2.08;;;0.77;;
41799;SDS011;27468;47.460;19.034;2023-02-04T10:57:05;0.65;;;0.50;;
41799;SDS011;27468;47.460;19.034;2023-02-04T11:02:15;2.92;;;0.95;;
41799;SDS011;27468;47.460;19.034;2023-02-04T11:04:49;2.33;;;0.95;;
41799;SDS011;27468;47.460;19.034;2023-02-04T11:07:14;1.25;;;1.00;;
41799;SDS011;27468;47.460;19.034;2023-02-04T11:09:40;1.02;;;0.90;;
41799;SDS011;27468;47.460;19.034;2023-02-04T11:12:17;1.83;;;1.05;;
41799;SDS011;27468;47.460;19.034;2023-02-04T11:14:53;1.98;;;1.00;;
41799;SDS011;27468;47.460;19.034;2023-02-04T11:17:20;1.20;;;0.70;;
41799;SDS011;27468;47.460;19.034;2023-02-04T11:19:46;1.38;;;0.80;;
41799;SDS011;27468;47.460;19.034;2023-02-04T11:22:45;0.43;;;0.40;;
41799;SDS011;27468;47.460;19.034;2023-02-04T11:27:59;1.52;;;0.80;;
41799;SDS011;27468;47.460;19.034;2023-02-04T11:30:30;1.05;;;0.77;;
41799;SDS011;27468;47.460;19.034;2023-02-04T11:33:01;0.60;;;0.60;;
41799;SDS011;27468;47.460;19.034;2023-02-04T11:35:28;2.05;;;0.90;;
41799;SDS011;27468;47.460;19.034;2023-02-04T11:37:55;1.23;;;0.80;;
41799;SDS011;27468;47.460;19.034;2023-02-04T11:40:34;1.55;;;0.68;;
41799;SDS011;27468;47.460;19.034;2023-02-04T11:43:03;0.90;;;0.40;;
41799;SDS011;27468;47.460;19.034;2023-02-04T11:45:35;1.50;;;0.77;;
41799;SDS011;27468;47.460;19.034;2023-02-04T11:48:02;0.88;;;0.57;;
41799;SDS011;27468;47.460;19.034;2023-02-04T11:50:36;1.17;;;0.70;;
41799;SDS011;27468;47.460;19.034;2023-02-04T11:53:02;0.98;;;0.60;;
41799;SDS011;27468;47.460;19.034;2023-02-04T11:55:29;1.30;;;0.38;;
41799;SDS011;27468;47.460;19.034;2023-02-04T11:57:58;1.17;;;0.60;;
41799;SDS011;27468;47.460;19.034;2023-02-04T12:00:28;1.55;;;0.70;;
41799;SDS011;27468;47.460;19.034;2023-02-04T12:02:59;1.15;;;0.50;;
41799;SDS011;27468;47.460;19.034;2023-02-04T12:05:36;0.70;;;0.47;;
41799;SDS011;27468;47.460;19.034;2023-02-04T12:08:08;0.95;;;0.40;;
41799;SDS011;27468;47.460;19.034;2023-02-04T12:10:37;2.55;;;0.88;;
41799;SDS011;27468;47.460;19.034;2023-02-04T12:13:10;1.42;;;0.88;;
41799;SDS011;27468;47.460;19.034;2023-02-04T12:15:37;1.33;;;0.90;;
41799;SDS011;27468;47.460;19.034;2023-02-04T12:18:07;1.50;;;0.73;;
41799;SDS011;27468;47.460;19.034;2023-02-04T12:20:36;1.98;;;0.65;;
41799;SDS011;27468;47.460;19.034;2023-02-04T12:23:02;1.60;;;1.00;;
41799;SDS011;27468;47.460;19.034;2023-02-04T12:25:28;1.85;;;1.10;;
41799;SDS011;27468;47.460;19.034;2023-02-04T12:27:54;1.80;;;0.90;;
41799;SDS011;27468;47.460;19.034;2023-02-04T12:30:21;2.22;;;1.50;;
41799;SDS011;27468;47.460;19.034;2023-02-04T12:32:47;2.15;;;0.90;;
41799;SDS011;27468;47.460;19.034;2023-02-04T12:35:13;1.15;;;0.70;;
41799;SDS011;27468;47.460;19.034;2023-02-04T12:37:39;0.90;;;0.68;;
41799;SDS011;27468;47.460;19.034;2023-02-04T12:40:04;1.33;;;0.80;;
41799;SDS011;27468;47.460;19.034;2023-02-04T12:42:30;1.30;;;1.00;;
41799;SDS011;27468;47.460;19.034;2023-02-04T12:44:55;2.92;;;1.70;;
41799;SDS011;27468;47.460;19.034;2023-02-04T12:47:21;1.17;;;0.80;;
41799;SDS011;27468;47.460;19.034;2023-02-04T12:49:46;2.72;;;1.95;;
41799;SDS011;27468;47.460;19.034;2023-02-04T12:52:12;3.25;;;1.00;;
41799;SDS011;27468;47.460;19.034;2023-02-04T12:54:37;1.38;;;1.08;;
41799;SDS011;27468;47.460;19.034;2023-02-04T12:57:03;1.67;;;1.10;;
41799;SDS011;27468;47.460;19.034;2023-02-04T12:59:28;2.90;;;1.58;;
41799;SDS011;27468;47.460;19.034;2023-02-04T13:01:55;2.35;;;1.30;;
41799;SDS011;27468;47.460;19.034;2023-02-04T13:04:21;2.00;;;1.38;;
41799;SDS011;27468;47.460;19.034;2023-02-04T13:06:49;2.22;;;1.17;;
41799;SDS011;27468;47.460;19.034;2023-02-04T13:09:15;2.30;;;1.15;;
41799;SDS011;27468;47.460;19.034;2023-02-04T13:11:40;3.35;;;1.10;;
41799;SDS011;27468;47.460;19.034;2023-02-04T13:14:06;3.17;;;1.20;;
41799;SDS011;27468;47.460;19.034;2023-02-04T13:16:33;1.30;;;1.15;;
41799;SDS011;27468;47.460;19.034;2023-02-04T13:18:59;2.83;;;1.60;;
41799;SDS011;27468;47.460;19.034;2023-02-04T13:21:24;2.28;;;1.35;;
41799;SDS011;27468;47.460;19.034;2023-02-04T13:23:50;3.63;;;1.67;;
41799;SDS011;27468;47.460;19.034;2023-02-04T13:26:15;2.50;;;1.15;;
41799;SDS011;27468;47.460;19.034;2023-02-04T13:28:45;1.80;;;1.20;;
41799;SDS011;27468;47.460;19.034;2023-02-04T13:31:10;1.33;;;0.80;;
41799;SDS011;27468;47.460;19.034;2023-02-04T13:33:36;4.27;;;0.73;;
41799;SDS011;27468;47.460;19.034;2023-02-04T13:36:01;1.63;;;0.90;;
41799;SDS011;27468;47.460;19.034;2023-02-04T13:38:26;2.43;;;1.50;;
41799;SDS011;27468;47.460;19.034;2023-02-04T13:40:52;1.23;;;0.85;;
41799;SDS011;27468;47.460;19.034;2023-02-04T13:43:17;1.95;;;1.00;;
41799;SDS011;27468;47.460;19.034;2023-02-04T13:45:43;1.33;;;0.90;;
41799;SDS011;27468;47.460;19.034;2023-02-04T13:48:12;1.38;;;1.10;;
41799;SDS011;27468;47.460;19.034;2023-02-04T13:50:38;1.70;;;1.00;;
41799;SDS011;27468;47.460;19.034;2023-02-04T13:53:03;2.10;;;1.40;;
41799;SDS011;27468;47.460;19.034;2023-02-04T13:55:29;2.53;;;1.15;;
41799;SDS011;27468;47.460;19.034;2023-02-04T13:57:54;2.53;;;1.20;;
41799;SDS011;27468;47.460;19.034;2023-02-04T14:00:20;1.37;;;0.60;;
41799;SDS011;27468;47.460;19.034;2023-02-04T14:02:45;1.75;;;1.05;;
41799;SDS011;27468;47.460;19.034;2023-02-04T14:05:12;1.30;;;0.80;;
41799;SDS011;27468;47.460;19.034;2023-02-04T14:07:38;2.70;;;1.33;;
41799;SDS011;27468;47.460;19.034;2023-02-04T14:10:03;2.07;;;0.97;;
41799;SDS011;27468;47.460;19.034;2023-02-04T14:12:29;1.40;;;0.97;;
41799;SDS011;27468;47.460;19.034;2023-02-04T14:14:55;2.13;;;1.50;;
41799;SDS011;27468;47.460;19.034;2023-02-04T14:17:20;1.83;;;1.53;;
41799;SDS011;27468;47.460;19.034;2023-02-04T14:19:46;2.83;;;1.07;;
41799;SDS011;27468;47.460;19.034;2023-02-04T14:22:11;1.87;;;1.17;;
41799;SDS011;27468;47.460;19.034;2023-02-04T14:24:37;2.17;;;1.40;;
41799;SDS011;27468;47.460;19.034;2023-02-04T14:27:05;3.70;;;1.80;;
41799;SDS011;27468;47.460;19.034;2023-02-04T14:29:32;0.70;;;0.70;;
41799;SDS011;27468;47.460;19.034;2023-02-04T14:31:58;1.63;;;1.27;;
41799;SDS011;27468;47.460;19.034;2023-02-04T14:34:23;1.80;;;1.17;;
41799;SDS011;27468;47.460;19.034;2023-02-04T14:36:48;2.90;;;1.60;;
41799;SDS011;27468;47.460;19.034;2023-02-04T14:39:14;2.13;;;1.00;;
41799;SDS011;27468;47.460;19.034;2023-02-04T14:41:39;3.23;;;1.23;;
41799;SDS011;27468;47.460;19.034;2023-02-04T14:44:05;4.37;;;1.10;;
41799;SDS011;27468;47.460;19.034;2023-02-04T14:46:30;3.80;;;1.10;;